createdAt,value
2023-06-17T00:00:14.237Z,15.97
2023-06-17T00:02:42.431Z,15.90
2023-06-17T00:05:11.569Z,15.86
2023-06-17T00:07:42.482Z,15.86
2023-06-17T00:10:11.771Z,15.84
2023-06-17T00:12:40.238Z,15.82
2023-06-17T00:15:09.997Z,15.81
2023-06-17T00:17:38.104Z,15.79
2023-06-17T00:20:11.345Z,15.80
2023-06-17T00:22:41.658Z,15.78
2023-06-17T00:25:11.387Z,15.77
2023-06-17T00:27:39.890Z,15.73
2023-06-17T00:30:09.037Z,15.73
2023-06-17T00:32:37.982Z,15.69
2023-06-17T00:35:07.207Z,15.66
2023-06-17T00:37:35.501Z,15.65
2023-06-17T00:40:09.037Z,15.63
2023-06-17T00:42:37.576Z,15.61
2023-06-17T00:45:07.003Z,15.60
2023-06-17T00:47:35.391Z,15.58
2023-06-17T00:50:05.088Z,15.56
2023-06-17T00:52:42.072Z,15.57
2023-06-17T00:55:13.336Z,15.55
2023-06-17T00:57:41.829Z,15.53
2023-06-17T01:00:12.735Z,15.53
2023-06-17T01:02:42.291Z,15.55
2023-06-17T01:05:13.715Z,15.57
2023-06-17T01:07:51.645Z,15.58
2023-06-17T01:10:26.552Z,15.63
2023-06-17T01:12:56.253Z,15.67
2023-06-17T01:15:25.093Z,15.71
2023-06-17T01:17:55.490Z,15.73
2023-06-17T01:20:26.916Z,15.76
2023-06-17T01:22:56.222Z,15.81
2023-06-17T01:25:30.869Z,15.85
2023-06-17T01:28:01.978Z,15.90
2023-06-17T01:30:33.424Z,15.92
2023-06-17T01:33:03.894Z,15.94
2023-06-17T01:35:33.903Z,15.96
2023-06-17T01:38:08.182Z,15.98
2023-06-17T01:40:40.688Z,15.96
2023-06-17T01:43:09.978Z,15.96
2023-06-17T01:45:38.402Z,15.97
2023-06-17T01:48:06.940Z,15.97
2023-06-17T01:50:35.127Z,15.97
2023-06-17T01:53:03.241Z,15.97
2023-06-17T01:55:31.374Z,15.98
2023-06-17T01:58:00.991Z,15.98
2023-06-17T02:00:29.204Z,15.96
2023-06-17T02:02:57.430Z,15.90
2023-06-17T02:05:25.660Z,15.87
2023-06-17T02:07:54.801Z,15.82
2023-06-17T02:10:23.485Z,15.79
2023-06-17T02:12:51.689Z,15.75
2023-06-17T02:15:21.368Z,15.70
2023-06-17T02:17:49.535Z,15.69
2023-06-17T02:20:17.736Z,15.66
2023-06-17T02:22:46.038Z,15.64
2023-06-17T02:25:14.141Z,15.63
2023-06-17T02:27:42.275Z,15.58
2023-06-17T02:30:12.177Z,15.56
2023-06-17T02:32:41.795Z,15.57
2023-06-17T02:35:11.581Z,15.57
2023-06-17T02:37:39.866Z,15.60
2023-06-17T02:40:10.493Z,15.61
2023-06-17T02:42:39.100Z,15.62
2023-06-17T02:45:08.405Z,15.64
2023-06-17T02:47:36.703Z,15.62
2023-06-17T02:50:08.288Z,15.61
2023-06-17T02:52:38.299Z,15.62
2023-06-17T02:55:07.593Z,15.63
2023-06-17T02:57:36.811Z,15.62
2023-06-17T03:00:07.561Z,15.57
2023-06-17T03:02:35.849Z,15.53
2023-06-17T03:05:04.509Z,15.53
2023-06-17T03:07:37.073Z,15.51
2023-06-17T03:10:05.602Z,15.48
2023-06-17T03:12:33.676Z,15.44
2023-06-17T03:15:02.046Z,15.46
2023-06-17T03:17:30.125Z,15.47
2023-06-17T03:20:00.418Z,15.47
2023-06-17T03:22:28.531Z,15.51
2023-06-17T03:24:58.027Z,15.52
2023-06-17T03:27:26.244Z,15.52
2023-06-17T03:29:54.345Z,15.56
2023-06-17T03:32:22.490Z,15.60
2023-06-17T03:34:50.635Z,15.63
2023-06-17T03:37:18.726Z,15.65
2023-06-17T03:39:46.857Z,15.66
2023-06-17T03:42:17.217Z,15.66
2023-06-17T03:44:45.353Z,15.70
2023-06-17T03:47:13.699Z,15.71
2023-06-17T03:49:41.835Z,15.73
2023-06-17T03:52:10.091Z,15.73
2023-06-17T03:54:38.524Z,15.74
2023-06-17T03:57:07.358Z,15.66
2023-06-17T03:59:38.239Z,15.59
2023-06-17T04:02:06.715Z,15.60
2023-06-17T04:04:35.979Z,15.59
2023-06-17T04:07:05.282Z,15.65
2023-06-17T04:09:33.596Z,15.67
2023-06-17T04:12:01.847Z,15.68
2023-06-17T04:14:29.998Z,15.72
2023-06-17T04:17:00.393Z,15.76
2023-06-17T04:19:28.712Z,15.79
2023-06-17T04:21:56.786Z,15.77
2023-06-17T04:24:24.968Z,15.72
2023-06-17T04:26:53.999Z,15.67
2023-06-17T04:29:22.248Z,15.64
2023-06-17T04:31:51.012Z,15.60
2023-06-17T04:34:23.704Z,15.62
2023-06-17T04:36:58.335Z,15.62
2023-06-17T04:39:27.486Z,15.64
2023-06-17T04:41:55.629Z,15.70
2023-06-17T04:44:23.842Z,15.74
2023-06-17T04:46:51.971Z,15.73
2023-06-17T04:49:21.872Z,15.77
2023-06-17T04:51:49.965Z,15.83
2023-06-17T04:54:19.568Z,15.92
2023-06-17T04:56:49.675Z,16.01
2023-06-17T04:59:19.401Z,16.11
2023-06-17T05:01:47.584Z,16.18
2023-06-17T05:04:15.822Z,16.17
2023-06-17T05:06:45.310Z,16.22
2023-06-17T05:09:13.534Z,16.28
2023-06-17T05:11:41.925Z,16.34
2023-06-17T05:14:10.078Z,16.30
2023-06-17T05:16:38.271Z,16.22
2023-06-17T05:19:06.425Z,16.22
2023-06-17T05:21:34.524Z,16.24
2023-06-17T05:24:04.199Z,16.30
2023-06-17T05:26:32.385Z,16.41
2023-06-17T05:29:00.537Z,16.52
2023-06-17T05:31:28.651Z,16.67
2023-06-17T05:33:56.784Z,16.79
2023-06-17T05:36:26.640Z,16.91
2023-06-17T05:38:54.898Z,17.02
2023-06-17T05:41:24.396Z,17.11
2023-06-17T05:43:52.454Z,17.15
2023-06-17T05:46:20.756Z,17.14
2023-06-17T05:48:48.904Z,17.09
2023-06-17T05:51:17.849Z,17.09
2023-06-17T05:53:47.066Z,17.09
2023-06-17T05:56:15.340Z,17.13
2023-06-17T05:58:45.023Z,17.19
2023-06-17T06:01:13.156Z,17.27
2023-06-17T06:03:41.294Z,17.36
2023-06-17T06:06:09.445Z,17.43
2023-06-17T06:08:37.571Z,17.50
2023-06-17T06:11:05.896Z,17.58
2023-06-17T06:13:33.993Z,17.69
2023-06-17T06:16:04.934Z,17.76
2023-06-17T06:18:33.115Z,17.84
2023-06-17T06:21:01.214Z,17.86
2023-06-17T06:23:30.609Z,17.91
2023-06-17T06:25:58.744Z,18.02
2023-06-17T06:28:26.867Z,18.17
2023-06-17T06:30:54.965Z,18.29
2023-06-17T06:33:24.676Z,18.38
2023-06-17T06:35:52.810Z,18.46
2023-06-17T06:38:20.989Z,18.51
2023-06-17T06:40:49.176Z,18.58
2023-06-17T06:43:17.258Z,18.65
2023-06-17T06:45:45.688Z,18.72
2023-06-17T06:48:14.611Z,18.74
2023-06-17T06:50:44.154Z,18.84
2023-06-17T06:53:12.236Z,18.95
2023-06-17T06:55:41.072Z,18.94
2023-06-17T06:58:09.177Z,18.95
2023-06-17T07:00:37.292Z,19.02
2023-06-17T07:03:05.484Z,19.12
2023-06-17T07:05:33.639Z,19.34
2023-06-17T07:08:03.686Z,19.68
2023-06-17T07:10:31.815Z,19.91
2023-06-17T07:12:59.928Z,20.01
2023-06-17T07:15:28.027Z,20.07
2023-06-17T07:17:56.178Z,20.42
2023-06-17T07:20:24.459Z,20.84
2023-06-17T07:22:52.613Z,21.32
2023-06-17T07:25:22.155Z,21.73
2023-06-17T07:27:51.805Z,22.15
2023-06-17T07:30:20.310Z,22.56
2023-06-17T07:32:48.653Z,22.86
2023-06-17T07:35:16.920Z,23.17
2023-06-17T07:37:45.029Z,23.45
2023-06-17T07:40:14.850Z,23.73
2023-06-17T07:42:44.800Z,23.95
2023-06-17T07:45:13.422Z,24.09
2023-06-17T07:47:41.750Z,24.32
2023-06-17T07:50:10.721Z,24.61
2023-06-17T07:52:39.030Z,24.90
2023-06-17T07:55:09.588Z,25.11
2023-06-17T07:57:37.830Z,24.98
2023-06-17T08:00:11.821Z,24.94
2023-06-17T08:02:40.041Z,25.26
2023-06-17T08:05:08.707Z,25.50
2023-06-17T08:07:37.379Z,25.76
2023-06-17T08:10:08.850Z,25.65
2023-06-17T08:12:38.101Z,25.31
2023-06-17T08:15:09.144Z,25.28
2023-06-17T08:17:37.535Z,25.39
2023-06-17T08:20:06.557Z,25.55
2023-06-17T08:22:34.733Z,25.75
2023-06-17T08:25:02.861Z,26.01
2023-06-17T08:27:32.211Z,26.33
2023-06-17T08:30:00.869Z,26.62
2023-06-17T08:32:30.456Z,26.87
2023-06-17T08:34:58.648Z,26.91
2023-06-17T08:37:26.793Z,26.90
2023-06-17T08:39:54.910Z,27.02
2023-06-17T08:42:23.394Z,27.11
2023-06-17T08:44:53.570Z,27.24
2023-06-17T08:47:22.676Z,27.44
2023-06-17T08:49:52.389Z,27.57
2023-06-17T08:52:20.635Z,27.37
2023-06-17T08:54:49.739Z,27.23
2023-06-17T08:57:19.143Z,27.28
2023-06-17T08:59:47.581Z,27.58
2023-06-17T09:02:16.851Z,27.82
2023-06-17T09:04:45.064Z,27.91
2023-06-17T09:07:14.742Z,27.89
2023-06-17T09:09:48.553Z,27.99
2023-06-17T09:12:16.711Z,28.14
2023-06-17T09:14:46.394Z,28.23
2023-06-17T09:17:29.666Z,28.18
2023-06-17T09:19:57.790Z,28.14
2023-06-17T09:22:28.554Z,28.05
2023-06-17T09:24:59.841Z,27.82
2023-06-17T09:27:28.569Z,27.71
2023-06-17T09:30:10.513Z,27.64
2023-06-17T09:32:39.714Z,27.97
2023-06-17T09:35:09.553Z,28.25
2023-06-17T09:37:42.409Z,28.50
2023-06-17T09:40:18.962Z,28.09
2023-06-17T09:42:47.995Z,27.80
2023-06-17T09:45:20.109Z,27.88
2023-06-17T09:47:53.492Z,28.13
2023-06-17T09:50:24.332Z,28.06
2023-06-17T09:52:57.036Z,27.97
2023-06-17T09:55:25.779Z,28.27
2023-06-17T09:57:54.915Z,28.45
2023-06-17T10:00:25.566Z,28.59
2023-06-17T10:02:54.534Z,28.93
2023-06-17T10:05:24.935Z,29.00
2023-06-17T10:07:55.913Z,29.22
2023-06-17T10:10:25.303Z,29.50
2023-06-17T10:12:54.943Z,29.64
2023-06-17T10:15:23.813Z,29.72
2023-06-17T10:17:53.096Z,29.77
2023-06-17T10:20:23.290Z,29.86
2023-06-17T10:22:55.824Z,29.92
2023-06-17T10:25:26.357Z,29.94
2023-06-17T10:27:54.439Z,29.93
2023-06-17T10:30:25.631Z,30.05
2023-06-17T10:32:57.525Z,30.02
2023-06-17T10:35:26.357Z,29.94
2023-06-17T10:37:54.439Z,29.96
2023-06-17T10:40:28.199Z,29.96
2023-06-17T10:42:59.185Z,29.84
2023-06-17T10:45:30.294Z,29.79
2023-06-17T10:48:15.973Z,29.86
2023-06-17T10:50:44.232Z,29.92
2023-06-17T10:53:16.973Z,29.86
2023-06-17T10:55:47.529Z,29.79
2023-06-17T10:58:15.659Z,29.67
2023-06-17T11:00:43.815Z,29.63
2023-06-17T11:03:12.100Z,29.60
2023-06-17T11:05:40.747Z,29.48
2023-06-17T11:08:12.599Z,29.49
2023-06-17T11:10:40.746Z,29.50
2023-06-17T11:13:10.275Z,29.58
2023-06-17T11:15:38.481Z,29.60
2023-06-17T11:18:08.025Z,29.63
2023-06-17T11:20:36.747Z,29.72
2023-06-17T11:23:05.604Z,29.74
2023-06-17T11:25:44.407Z,29.71
2023-06-17T11:28:15.997Z,29.77
2023-06-17T11:30:44.231Z,29.94
2023-06-17T11:33:12.462Z,29.94
2023-06-17T11:35:41.005Z,29.95
2023-06-17T11:38:09.980Z,29.93
2023-06-17T11:40:41.865Z,29.87
2023-06-17T11:43:10.232Z,29.86
2023-06-17T11:45:39.965Z,29.91
2023-06-17T11:48:08.236Z,29.99
2023-06-17T11:50:38.676Z,29.92
2023-06-17T11:53:06.933Z,29.83
2023-06-17T11:55:35.889Z,29.70
2023-06-17T11:58:05.477Z,29.56
2023-06-17T12:00:36.577Z,29.48
2023-06-17T12:03:06.681Z,29.59
2023-06-17T12:05:34.922Z,29.66
2023-06-17T12:08:03.344Z,29.62
2023-06-17T12:10:31.527Z,29.51
2023-06-17T12:13:00.071Z,29.36
2023-06-17T12:18:11.952Z,29.30
2023-06-17T12:20:40.784Z,29.30
2023-06-17T12:23:08.917Z,29.33
2023-06-17T12:25:37.061Z,29.37
2023-06-17T12:28:05.234Z,29.44
2023-06-17T12:30:34.828Z,29.47
2023-06-17T12:33:03.307Z,29.46
2023-06-17T12:35:32.854Z,29.41
2023-06-17T12:38:01.002Z,29.34
2023-06-17T12:40:29.805Z,29.30
2023-06-17T12:42:57.916Z,29.38
2023-06-17T12:45:28.255Z,29.40
2023-06-17T12:47:57.137Z,29.34
2023-06-17T12:50:25.744Z,29.20
2023-06-17T12:52:56.597Z,29.21
2023-06-17T12:55:24.752Z,29.30
2023-06-17T12:57:52.886Z,29.48
2023-06-17T13:00:21.069Z,29.42
2023-06-17T13:02:49.612Z,29.33
2023-06-17T13:05:18.048Z,29.27
2023-06-17T13:07:46.206Z,29.36
2023-06-17T13:10:16.198Z,29.33
2023-06-17T13:12:44.366Z,29.41
2023-06-17T13:15:12.828Z,29.43
2023-06-17T13:17:42.107Z,29.41
2023-06-17T13:20:11.145Z,29.39
2023-06-17T13:22:39.397Z,29.48
2023-06-17T13:25:08.441Z,29.59
2023-06-17T13:27:38.005Z,29.51
2023-06-17T13:30:07.120Z,29.51
2023-06-17T13:32:35.286Z,29.55
2023-06-17T13:35:05.177Z,29.56
2023-06-17T13:37:33.433Z,29.51
2023-06-17T13:40:01.581Z,29.41
2023-06-17T13:42:29.749Z,29.41
2023-06-17T13:45:00.312Z,29.49
2023-06-17T13:47:28.787Z,29.36
2023-06-17T13:49:57.370Z,29.30
2023-06-17T13:52:25.487Z,29.18
2023-06-17T13:54:53.675Z,29.17
2023-06-17T13:57:21.816Z,29.17
2023-06-17T13:59:50.423Z,29.24
2023-06-17T14:02:20.180Z,29.13
2023-06-17T14:04:48.359Z,29.10
2023-06-17T14:07:16.465Z,29.03
2023-06-17T14:09:44.701Z,28.81
2023-06-17T14:12:13.205Z,28.73
2023-06-17T14:14:41.340Z,28.75
2023-06-17T14:17:09.491Z,28.77
2023-06-17T14:19:39.304Z,28.67
2023-06-17T14:22:08.156Z,28.63
2023-06-17T14:24:38.885Z,28.65
2023-06-17T14:27:32.768Z,28.56
2023-06-17T14:30:00.901Z,28.39
2023-06-17T14:32:29.094Z,28.23
2023-06-17T14:34:59.964Z,28.11
2023-06-17T14:37:30.031Z,28.01
2023-06-17T14:39:58.505Z,27.93
2023-06-17T14:42:26.761Z,27.80
2023-06-17T14:44:54.890Z,27.66
2023-06-17T14:47:23.237Z,27.55
2023-06-17T14:49:51.571Z,27.48
2023-06-17T14:52:21.094Z,27.43
2023-06-17T14:54:49.232Z,27.39
2023-06-17T14:57:17.438Z,27.34
2023-06-17T14:59:46.183Z,27.28
2023-06-17T15:02:43.120Z,27.23
2023-06-17T15:05:11.385Z,27.11
2023-06-17T15:07:40.910Z,27.04
2023-06-17T15:10:09.888Z,26.95
2023-06-17T15:12:42.854Z,26.88
2023-06-17T15:15:12.763Z,26.87
2023-06-17T15:17:42.342Z,26.83
2023-06-17T15:20:11.582Z,26.83
2023-06-17T15:22:41.188Z,26.87
2023-06-17T15:25:10.024Z,26.82
2023-06-17T15:27:38.158Z,26.73
2023-06-17T15:30:07.686Z,26.73
2023-06-17T15:32:35.925Z,26.73
2023-06-17T15:35:04.157Z,26.66
2023-06-17T15:37:33.808Z,26.51
2023-06-17T15:40:05.110Z,26.30
2023-06-17T15:42:33.237Z,26.08
2023-06-17T15:45:01.364Z,25.87
2023-06-17T15:47:29.516Z,25.64
2023-06-17T15:49:57.680Z,25.45
2023-06-17T15:52:27.108Z,25.29
2023-06-17T15:54:56.765Z,25.11
2023-06-17T15:57:26.366Z,24.94
2023-06-17T15:59:54.804Z,24.80
2023-06-17T16:02:22.979Z,24.66
2023-06-17T16:04:54.736Z,24.56
2023-06-17T16:07:23.003Z,24.44
2023-06-17T16:09:53.568Z,24.33
2023-06-17T16:12:22.672Z,24.24
2023-06-17T16:14:52.432Z,24.13
2023-06-17T16:17:21.664Z,24.03
2023-06-17T16:19:49.878Z,23.95
2023-06-17T16:22:18.027Z,23.88
2023-06-17T16:24:46.143Z,23.81
2023-06-17T16:27:14.385Z,23.76
2023-06-17T16:29:42.932Z,23.72
2023-06-17T16:32:12.503Z,23.67
2023-06-17T16:34:40.821Z,23.66
2023-06-17T16:37:08.986Z,23.70
2023-06-17T16:39:37.292Z,23.75
2023-06-17T16:42:07.470Z,23.68
2023-06-17T16:44:36.050Z,23.53
2023-06-17T16:47:04.372Z,23.37
2023-06-17T16:49:33.836Z,23.19
2023-06-17T16:52:02.246Z,23.04
2023-06-17T16:54:30.397Z,22.98
2023-06-17T16:56:58.540Z,22.94
2023-06-17T16:59:26.683Z,22.85
2023-06-17T17:01:56.466Z,22.78
2023-06-17T17:04:24.672Z,22.68
2023-06-17T17:06:54.194Z,22.57
2023-06-17T17:09:22.288Z,22.44
2023-06-17T17:11:50.381Z,22.37
2023-06-17T17:14:18.541Z,22.30
2023-06-17T17:16:46.765Z,22.25
2023-06-17T17:19:14.954Z,22.20
2023-06-17T17:21:43.097Z,22.17
2023-06-17T17:24:12.630Z,22.14
2023-06-17T17:26:41.096Z,22.13
2023-06-17T17:29:09.261Z,22.14
2023-06-17T17:31:37.411Z,22.15
2023-06-17T17:34:05.530Z,22.13
2023-06-17T17:36:33.682Z,22.08
2023-06-17T17:39:01.951Z,22.04
2023-06-17T17:41:31.607Z,22.02
2023-06-17T17:43:59.797Z,21.97
2023-06-17T17:46:28.297Z,21.92
2023-06-17T17:48:56.470Z,21.85
2023-06-17T17:51:24.944Z,21.79
2023-06-17T17:53:53.091Z,21.74
2023-06-17T17:56:21.259Z,21.68
2023-06-17T17:58:51.645Z,21.62
2023-06-17T18:01:19.796Z,21.58
2023-06-17T18:03:48.745Z,21.55
2023-06-17T18:06:17.003Z,21.52
2023-06-17T18:08:45.156Z,21.50
2023-06-17T18:11:13.431Z,21.51
2023-06-17T18:13:41.520Z,21.50
2023-06-17T18:16:11.100Z,21.50
2023-06-17T18:18:39.287Z,21.52
2023-06-17T18:21:07.437Z,21.53
2023-06-17T18:23:35.695Z,21.54
2023-06-17T18:26:03.966Z,21.56
2023-06-17T18:28:32.077Z,21.58
2023-06-17T18:31:00.234Z,21.64
2023-06-17T18:33:29.790Z,21.67
2023-06-17T18:35:58.045Z,21.68
2023-06-17T18:38:26.464Z,21.67
2023-06-17T18:40:54.632Z,21.65
2023-06-17T18:43:22.983Z,21.63
2023-06-17T18:45:51.133Z,21.59
2023-06-17T18:48:19.268Z,21.54
2023-06-17T18:50:49.337Z,21.50
2023-06-17T18:53:17.599Z,21.47
2023-06-17T18:55:45.737Z,21.42
2023-06-17T18:58:13.943Z,21.37
2023-06-17T19:00:42.517Z,21.32
2023-06-17T19:03:10.863Z,21.28
2023-06-17T19:05:40.814Z,21.27
2023-06-17T19:08:10.460Z,21.21
2023-06-17T19:10:38.900Z,21.17
2023-06-17T19:13:07.099Z,21.14
2023-06-17T19:15:36.381Z,21.10
2023-06-17T19:18:04.872Z,21.08
2023-06-17T19:20:33.138Z,21.04
2023-06-17T19:23:01.903Z,20.98
2023-06-17T19:25:31.421Z,20.93
2023-06-17T19:27:59.908Z,20.86
2023-06-17T19:30:28.059Z,20.82
2023-06-17T19:32:56.260Z,20.77
2023-06-17T19:35:24.445Z,20.70
2023-06-17T19:37:52.575Z,20.65
2023-06-17T19:40:21.169Z,20.59
2023-06-17T19:42:50.922Z,20.54
2023-06-17T19:45:19.033Z,20.48
2023-06-17T19:47:47.309Z,20.43
2023-06-17T19:50:15.876Z,20.36
2023-06-17T19:52:44.064Z,20.27
2023-06-17T19:55:13.991Z,20.20
2023-06-17T19:57:42.974Z,20.13
2023-06-17T20:00:14.280Z,20.04
2023-06-17T20:02:42.519Z,19.94
2023-06-17T20:05:12.446Z,19.85
2023-06-17T20:07:40.995Z,19.76
2023-06-17T20:10:10.170Z,19.65
2023-06-17T20:12:38.293Z,19.56
2023-06-17T20:15:07.586Z,19.49
2023-06-17T20:17:37.202Z,19.40
2023-06-17T20:20:06.173Z,19.33
2023-06-17T20:22:34.338Z,19.24
2023-06-17T20:25:02.458Z,19.16
2023-06-17T20:27:30.639Z,19.10
2023-06-17T20:29:58.787Z,19.06
2023-06-17T20:32:27.103Z,19.02
2023-06-17T20:34:59.633Z,18.96
2023-06-17T20:37:27.799Z,18.90
2023-06-17T20:39:56.010Z,18.84
2023-06-17T20:42:24.141Z,18.77
2023-06-17T20:44:52.404Z,18.72
2023-06-17T20:47:20.670Z,18.66
2023-06-17T20:49:49.617Z,18.60
2023-06-17T20:52:19.152Z,18.54
2023-06-17T20:54:47.292Z,18.49
2023-06-17T20:57:15.740Z,18.44
2023-06-17T20:59:44.343Z,18.40
2023-06-17T21:02:15.132Z,18.34
2023-06-17T21:04:44.157Z,18.31
2023-06-17T21:07:12.390Z,18.25
2023-06-17T21:09:42.350Z,18.18
2023-06-17T21:12:11.514Z,18.13
2023-06-17T21:14:42.618Z,18.08
2023-06-17T21:17:10.729Z,18.03
2023-06-17T21:19:38.834Z,18.00
2023-06-17T21:22:07.064Z,17.96
2023-06-17T21:24:35.334Z,17.92
2023-06-17T21:27:10.186Z,17.87
2023-06-17T21:29:38.489Z,17.83
2023-06-17T21:32:07.622Z,17.77
2023-06-17T21:34:35.845Z,17.73
2023-06-17T21:37:04.101Z,17.67
2023-06-17T21:39:32.249Z,17.61
2023-06-17T21:42:00.487Z,17.58
2023-06-17T21:44:31.191Z,17.51
2023-06-17T21:47:00.729Z,17.48
2023-06-17T21:49:28.846Z,17.43
2023-06-17T21:51:57.479Z,17.38
2023-06-17T21:54:25.586Z,17.36
2023-06-17T21:56:53.747Z,17.33
2023-06-17T21:59:21.945Z,17.28
2023-06-17T22:01:51.483Z,17.26
2023-06-17T22:04:19.645Z,17.24
2023-06-17T22:06:47.783Z,17.23
2023-06-17T22:09:15.981Z,17.21
2023-06-17T22:11:44.166Z,17.17
2023-06-17T22:14:12.499Z,17.14
2023-06-17T22:16:42.308Z,17.12
2023-06-17T22:19:11.941Z,17.09
2023-06-17T22:21:40.074Z,17.03
2023-06-17T22:24:10.085Z,17.00
2023-06-17T22:26:38.283Z,16.96
2023-06-17T22:29:06.423Z,16.93
2023-06-17T22:31:34.685Z,16.91
2023-06-17T22:34:02.816Z,16.88
2023-06-17T22:36:32.312Z,16.87
2023-06-17T22:39:00.547Z,16.85
2023-06-17T22:41:28.736Z,16.83
2023-06-17T22:43:56.900Z,16.80
2023-06-17T22:46:26.405Z,16.73
2023-06-17T22:48:54.642Z,16.69
2023-06-17T22:51:24.509Z,16.65
2023-06-17T22:53:54.011Z,16.60
2023-06-17T22:56:22.298Z,16.57
2023-06-17T22:58:50.576Z,16.54
2023-06-17T23:01:18.785Z,16.51
2023-06-17T23:03:46.977Z,16.47
2023-06-17T23:06:15.129Z,16.44
2023-06-17T23:08:43.284Z,16.42
2023-06-17T23:11:12.883Z,16.40
2023-06-17T23:13:41.238Z,16.38
2023-06-17T23:16:09.602Z,16.36
2023-06-17T23:18:37.889Z,16.31
2023-06-17T23:21:06.014Z,16.29
2023-06-17T23:23:34.142Z,16.26
2023-06-17T23:26:03.445Z,16.22
2023-06-17T23:28:34.113Z,16.19
2023-06-17T23:31:03.105Z,16.19
2023-06-17T23:33:31.252Z,16.19
2023-06-17T23:35:59.352Z,16.22
2023-06-17T23:38:29.150Z,16.22
2023-06-17T23:40:57.327Z,16.22
2023-06-17T23:43:25.456Z,16.16
2023-06-17T23:45:56.746Z,16.13
2023-06-17T23:48:25.700Z,16.08
2023-06-17T23:50:53.904Z,16.07
2023-06-17T23:53:22.055Z,16.04
2023-06-17T23:55:50.167Z,16.00
2023-06-17T23:58:18.414Z,15.96
